sensor_id;sensor_type;location;lat;lon;timestamp;P1;durP1;ratioP1;P2;durP2;ratioP2
51556;SDS011;38766;53.194;5.532;2023-03-21T00:00:02;53.83;;;19.75;;
51556;SDS011;38766;53.194;5.532;2023-03-21T00:02:28;61.92;;;20.17;;
51556;SDS011;38766;53.194;5.532;2023-03-21T00:04:53;51.97;;;18.90;;
51556;SDS011;38766;53.194;5.532;2023-03-21T00:07:19;63.70;;;19.23;;
51556;SDS011;38766;53.194;5.532;2023-03-21T00:09:45;57.17;;;19.77;;
51556;SDS011;38766;53.194;5.532;2023-03-21T00:12:10;61.15;;;20.92;;
51556;SDS011;38766;53.194;5.532;2023-03-21T00:14:36;54.15;;;19.73;;
51556;SDS011;38766;53.194;5.532;2023-03-21T00:17:03;47.38;;;19.65;;
51556;SDS011;38766;53.194;5.532;2023-03-21T00:19:28;56.50;;;20.52;;
51556;SDS011;38766;53.194;5.532;2023-03-21T00:21:55;60.90;;;20.05;;
51556;SDS011;38766;53.194;5.532;2023-03-21T00:24:22;65.50;;;20.42;;
51556;SDS011;38766;53.194;5.532;2023-03-21T00:26:48;60.75;;;21.55;;
51556;SDS011;38766;53.194;5.532;2023-03-21T00:29:14;58.85;;;20.65;;
51556;SDS011;38766;53.194;5.532;2023-03-21T00:31:40;53.85;;;19.60;;
51556;SDS011;38766;53.194;5.532;2023-03-21T00:34:06;59.97;;;21.02;;
51556;SDS011;38766;53.194;5.532;2023-03-21T00:36:31;53.10;;;21.30;;
51556;SDS011;38766;53.194;5.532;2023-03-21T00:38:57;53.35;;;21.60;;
51556;SDS011;38766;53.194;5.532;2023-03-21T00:41:24;67.95;;;22.75;;
51556;SDS011;38766;53.194;5.532;2023-03-21T00:43:50;61.50;;;21.85;;
51556;SDS011;38766;53.194;5.532;2023-03-21T00:46:19;60.03;;;22.65;;
51556;SDS011;38766;53.194;5.532;2023-03-21T00:48:45;58.40;;;22.10;;
51556;SDS011;38766;53.194;5.532;2023-03-21T00:51:12;58.90;;;21.85;;
51556;SDS011;38766;53.194;5.532;2023-03-21T00:53:45;54.45;;;22.52;;
51556;SDS011;38766;53.194;5.532;2023-03-21T00:56:11;68.32;;;21.60;;
51556;SDS011;38766;53.194;5.532;2023-03-21T00:58:36;65.88;;;23.55;;
51556;SDS011;38766;53.194;5.532;2023-03-21T01:01:02;62.67;;;22.83;;
51556;SDS011;38766;53.194;5.532;2023-03-21T01:03:28;69.10;;;24.30;;
51556;SDS011;38766;53.194;5.532;2023-03-21T01:05:54;67.55;;;21.85;;
51556;SDS011;38766;53.194;5.532;2023-03-21T01:08:36;67.93;;;22.73;;
51556;SDS011;38766;53.194;5.532;2023-03-21T01:11:04;72.47;;;24.52;;
51556;SDS011;38766;53.194;5.532;2023-03-21T01:13:33;66.25;;;22.73;;
51556;SDS011;38766;53.194;5.532;2023-03-21T01:15:59;67.10;;;22.13;;
51556;SDS011;38766;53.194;5.532;2023-03-21T01:18:26;70.68;;;23.38;;
51556;SDS011;38766;53.194;5.532;2023-03-21T01:20:54;63.97;;;23.63;;
51556;SDS011;38766;53.194;5.532;2023-03-21T01:23:22;72.38;;;23.02;;
51556;SDS011;38766;53.194;5.532;2023-03-21T01:25:48;77.63;;;25.30;;
51556;SDS011;38766;53.194;5.532;2023-03-21T01:28:15;68.68;;;22.25;;
51556;SDS011;38766;53.194;5.532;2023-03-21T01:30:48;73.47;;;22.10;;
51556;SDS011;38766;53.194;5.532;2023-03-21T01:33:15;75.68;;;22.45;;
51556;SDS011;38766;53.194;5.532;2023-03-21T01:35:42;60.00;;;22.35;;
51556;SDS011;38766;53.194;5.532;2023-03-21T01:38:08;77.38;;;22.75;;
51556;SDS011;38766;53.194;5.532;2023-03-21T01:40:34;69.70;;;23.42;;
51556;SDS011;38766;53.194;5.532;2023-03-21T01:43:01;64.22;;;21.88;;
51556;SDS011;38766;53.194;5.532;2023-03-21T01:48:29;70.30;;;23.80;;
51556;SDS011;38766;53.194;5.532;2023-03-21T01:50:56;76.07;;;23.63;;
51556;SDS011;38766;53.194;5.532;2023-03-21T01:53:24;74.47;;;23.02;;
51556;SDS011;38766;53.194;5.532;2023-03-21T01:55:57;65.22;;;22.85;;
51556;SDS011;38766;53.194;5.532;2023-03-21T01:58:25;66.88;;;23.33;;
51556;SDS011;38766;53.194;5.532;2023-03-21T02:00:51;69.78;;;22.15;;
51556;SDS011;38766;53.194;5.532;2023-03-21T02:03:19;67.28;;;22.40;;
51556;SDS011;38766;53.194;5.532;2023-03-21T02:05:52;68.03;;;24.48;;
51556;SDS011;38766;53.194;5.532;2023-03-21T02:08:24;84.25;;;25.40;;
51556;SDS011;38766;53.194;5.532;2023-03-21T02:10:51;77.30;;;25.23;;
51556;SDS011;38766;53.194;5.532;2023-03-21T02:13:17;94.82;;;27.08;;
51556;SDS011;38766;53.194;5.532;2023-03-21T02:15:48;91.95;;;26.38;;
51556;SDS011;38766;53.194;5.532;2023-03-21T02:32:20;111.78;;;28.17;;
51556;SDS011;38766;53.194;5.532;2023-03-21T02:34:53;102.47;;;28.33;;
51556;SDS011;38766;53.194;5.532;2023-03-21T02:37:39;135.23;;;29.73;;
51556;SDS011;38766;53.194;5.532;2023-03-21T02:40:11;119.38;;;28.02;;
51556;SDS011;38766;53.194;5.532;2023-03-21T02:45:30;86.93;;;25.30;;
51556;SDS011;38766;53.194;5.532;2023-03-21T02:48:04;96.65;;;25.85;;
51556;SDS011;38766;53.194;5.532;2023-03-21T02:50:47;101.28;;;27.77;;
51556;SDS011;38766;53.194;5.532;2023-03-21T02:53:18;109.68;;;28.52;;
51556;SDS011;38766;53.194;5.532;2023-03-21T02:55:47;92.82;;;27.10;;
51556;SDS011;38766;53.194;5.532;2023-03-21T02:58:18;111.32;;;28.50;;
51556;SDS011;38766;53.194;5.532;2023-03-21T03:00:47;87.60;;;27.63;;
51556;SDS011;38766;53.194;5.532;2023-03-21T03:03:13;106.30;;;29.55;;
51556;SDS011;38766;53.194;5.532;2023-03-21T03:05:42;81.35;;;26.65;;
51556;SDS011;38766;53.194;5.532;2023-03-21T03:08:16;90.50;;;28.92;;
51556;SDS011;38766;53.194;5.532;2023-03-21T03:18:56;69.25;;;26.67;;
51556;SDS011;38766;53.194;5.532;2023-03-21T03:24:23;70.45;;;24.95;;
51556;SDS011;38766;53.194;5.532;2023-03-21T03:26:56;72.97;;;26.10;;
51556;SDS011;38766;53.194;5.532;2023-03-21T03:29:32;69.20;;;24.90;;
51556;SDS011;38766;53.194;5.532;2023-03-21T03:32:04;66.03;;;23.58;;
51556;SDS011;38766;53.194;5.532;2023-03-21T03:34:46;80.85;;;25.05;;
51556;SDS011;38766;53.194;5.532;2023-03-21T03:37:20;85.65;;;25.75;;
51556;SDS011;38766;53.194;5.532;2023-03-21T03:39:54;91.57;;;25.77;;
51556;SDS011;38766;53.194;5.532;2023-03-21T03:42:36;98.95;;;27.55;;
51556;SDS011;38766;53.194;5.532;2023-03-21T03:45:04;90.68;;;25.58;;
51556;SDS011;38766;53.194;5.532;2023-03-21T03:47:33;103.68;;;26.48;;
51556;SDS011;38766;53.194;5.532;2023-03-21T03:50:11;98.95;;;25.20;;
51556;SDS011;38766;53.194;5.532;2023-03-21T03:52:51;107.22;;;27.25;;
51556;SDS011;38766;53.194;5.532;2023-03-21T03:55:21;109.18;;;25.05;;
51556;SDS011;38766;53.194;5.532;2023-03-21T03:57:50;117.35;;;27.02;;
51556;SDS011;38766;53.194;5.532;2023-03-21T04:00:17;118.63;;;26.63;;
51556;SDS011;38766;53.194;5.532;2023-03-21T04:02:43;114.28;;;25.08;;
51556;SDS011;38766;53.194;5.532;2023-03-21T04:05:10;113.90;;;25.75;;
51556;SDS011;38766;53.194;5.532;2023-03-21T04:07:36;120.63;;;25.27;;
51556;SDS011;38766;53.194;5.532;2023-03-21T04:10:02;120.38;;;27.02;;
51556;SDS011;38766;53.194;5.532;2023-03-21T04:12:29;93.97;;;24.08;;
51556;SDS011;38766;53.194;5.532;2023-03-21T04:14:55;91.68;;;25.15;;
51556;SDS011;38766;53.194;5.532;2023-03-21T04:17:20;91.43;;;23.90;;
51556;SDS011;38766;53.194;5.532;2023-03-21T04:19:47;101.07;;;25.00;;
51556;SDS011;38766;53.194;5.532;2023-03-21T04:22:15;81.28;;;23.45;;
51556;SDS011;38766;53.194;5.532;2023-03-21T04:24:41;80.30;;;21.95;;
51556;SDS011;38766;53.194;5.532;2023-03-21T04:27:06;84.35;;;23.95;;
51556;SDS011;38766;53.194;5.532;2023-03-21T04:29:32;75.43;;;21.27;;
51556;SDS011;38766;53.194;5.532;2023-03-21T04:31:58;68.55;;;21.63;;
51556;SDS011;38766;53.194;5.532;2023-03-21T04:34:24;66.55;;;21.05;;
51556;SDS011;38766;53.194;5.532;2023-03-21T04:36:55;67.32;;;20.55;;
51556;SDS011;38766;53.194;5.532;2023-03-21T04:39:21;69.55;;;20.63;;
51556;SDS011;38766;53.194;5.532;2023-03-21T04:41:48;63.50;;;20.80;;
51556;SDS011;38766;53.194;5.532;2023-03-21T04:44:14;71.47;;;22.33;;
51556;SDS011;38766;53.194;5.532;2023-03-21T04:46:41;57.58;;;22.15;;
51556;SDS011;38766;53.194;5.532;2023-03-21T04:49:07;65.93;;;23.70;;
51556;SDS011;38766;53.194;5.532;2023-03-21T04:51:33;62.80;;;23.08;;
51556;SDS011;38766;53.194;5.532;2023-03-21T04:53:59;68.78;;;24.95;;
51556;SDS011;38766;53.194;5.532;2023-03-21T04:56:25;60.58;;;23.05;;
51556;SDS011;38766;53.194;5.532;2023-03-21T04:58:57;70.88;;;25.58;;
51556;SDS011;38766;53.194;5.532;2023-03-21T05:01:24;66.43;;;24.67;;
51556;SDS011;38766;53.194;5.532;2023-03-21T05:03:55;65.63;;;24.83;;
51556;SDS011;38766;53.194;5.532;2023-03-21T05:06:22;61.00;;;24.35;;
51556;SDS011;38766;53.194;5.532;2023-03-21T05:08:48;63.35;;;25.52;;
51556;SDS011;38766;53.194;5.532;2023-03-21T05:11:13;57.75;;;22.63;;
51556;SDS011;38766;53.194;5.532;2023-03-21T05:13:39;50.92;;;23.08;;
51556;SDS011;38766;53.194;5.532;2023-03-21T05:16:05;47.17;;;22.55;;
51556;SDS011;38766;53.194;5.532;2023-03-21T05:18:31;47.88;;;19.83;;
51556;SDS011;38766;53.194;5.532;2023-03-21T05:20:58;48.85;;;20.95;;
51556;SDS011;38766;53.194;5.532;2023-03-21T05:23:24;41.63;;;19.13;;
51556;SDS011;38766;53.194;5.532;2023-03-21T05:25:55;39.22;;;18.40;;
51556;SDS011;38766;53.194;5.532;2023-03-21T05:28:21;37.05;;;17.58;;
51556;SDS011;38766;53.194;5.532;2023-03-21T05:30:47;34.22;;;16.85;;
51556;SDS011;38766;53.194;5.532;2023-03-21T05:33:12;31.35;;;15.40;;
51556;SDS011;38766;53.194;5.532;2023-03-21T05:35:38;33.65;;;16.40;;
51556;SDS011;38766;53.194;5.532;2023-03-21T05:38:04;36.55;;;16.52;;
51556;SDS011;38766;53.194;5.532;2023-03-21T05:40:30;27.55;;;13.60;;
51556;SDS011;38766;53.194;5.532;2023-03-21T05:42:55;29.80;;;13.65;;
51556;SDS011;38766;53.194;5.532;2023-03-21T05:45:21;29.45;;;14.82;;
51556;SDS011;38766;53.194;5.532;2023-03-21T05:47:47;26.05;;;13.10;;
51556;SDS011;38766;53.194;5.532;2023-03-21T05:50:12;32.22;;;14.05;;
51556;SDS011;38766;53.194;5.532;2023-03-21T05:52:38;27.58;;;13.85;;
51556;SDS011;38766;53.194;5.532;2023-03-21T05:55:04;29.15;;;13.98;;
51556;SDS011;38766;53.194;5.532;2023-03-21T05:57:31;27.70;;;13.95;;
51556;SDS011;38766;53.194;5.532;2023-03-21T05:59:59;27.55;;;14.38;;
51556;SDS011;38766;53.194;5.532;2023-03-21T06:02:25;26.90;;;14.05;;
51556;SDS011;38766;53.194;5.532;2023-03-21T06:04:51;26.77;;;13.70;;
51556;SDS011;38766;53.194;5.532;2023-03-21T06:07:17;30.50;;;13.07;;
51556;SDS011;38766;53.194;5.532;2023-03-21T06:09:42;30.35;;;13.32;;
51556;SDS011;38766;53.194;5.532;2023-03-21T06:12:08;23.40;;;12.85;;
51556;SDS011;38766;53.194;5.532;2023-03-21T06:14:35;25.30;;;13.20;;
51556;SDS011;38766;53.194;5.532;2023-03-21T06:17:01;26.13;;;14.00;;
51556;SDS011;38766;53.194;5.532;2023-03-21T06:19:26;28.35;;;13.52;;
51556;SDS011;38766;53.194;5.532;2023-03-21T06:21:52;26.13;;;13.38;;
51556;SDS011;38766;53.194;5.532;2023-03-21T06:24:17;23.70;;;13.18;;
51556;SDS011;38766;53.194;5.532;2023-03-21T06:26:44;25.92;;;13.27;;
51556;SDS011;38766;53.194;5.532;2023-03-21T06:29:10;25.83;;;13.73;;
51556;SDS011;38766;53.194;5.532;2023-03-21T06:31:36;26.55;;;14.70;;
51556;SDS011;38766;53.194;5.532;2023-03-21T06:34:02;25.05;;;13.75;;
51556;SDS011;38766;53.194;5.532;2023-03-21T06:36:27;28.40;;;13.63;;
51556;SDS011;38766;53.194;5.532;2023-03-21T06:38:53;25.45;;;13.90;;
51556;SDS011;38766;53.194;5.532;2023-03-21T06:41:19;28.55;;;14.82;;
51556;SDS011;38766;53.194;5.532;2023-03-21T06:43:45;27.45;;;13.45;;
51556;SDS011;38766;53.194;5.532;2023-03-21T06:46:10;24.63;;;13.02;;
51556;SDS011;38766;53.194;5.532;2023-03-21T06:48:36;24.73;;;12.82;;
51556;SDS011;38766;53.194;5.532;2023-03-21T06:51:03;26.95;;;14.00;;
51556;SDS011;38766;53.194;5.532;2023-03-21T06:53:29;24.02;;;13.65;;
51556;SDS011;38766;53.194;5.532;2023-03-21T06:55:56;24.50;;;12.38;;
51556;SDS011;38766;53.194;5.532;2023-03-21T06:58:22;22.33;;;12.05;;
51556;SDS011;38766;53.194;5.532;2023-03-21T07:00:48;23.95;;;13.00;;
51556;SDS011;38766;53.194;5.532;2023-03-21T07:03:14;20.80;;;10.63;;
51556;SDS011;38766;53.194;5.532;2023-03-21T07:05:41;20.25;;;11.25;;
51556;SDS011;38766;53.194;5.532;2023-03-21T07:08:07;18.35;;;10.48;;
51556;SDS011;38766;53.194;5.532;2023-03-21T07:10:40;23.35;;;10.85;;
51556;SDS011;38766;53.194;5.532;2023-03-21T07:13:06;22.33;;;11.18;;
51556;SDS011;38766;53.194;5.532;2023-03-21T07:15:32;21.92;;;11.10;;
51556;SDS011;38766;53.194;5.532;2023-03-21T07:18:02;21.38;;;11.68;;
51556;SDS011;38766;53.194;5.532;2023-03-21T07:20:34;21.88;;;11.63;;
51556;SDS011;38766;53.194;5.532;2023-03-21T07:23:02;17.83;;;10.60;;
51556;SDS011;38766;53.194;5.532;2023-03-21T07:25:28;23.92;;;12.77;;
51556;SDS011;38766;53.194;5.532;2023-03-21T07:27:54;19.27;;;10.73;;
51556;SDS011;38766;53.194;5.532;2023-03-21T07:30:19;18.40;;;10.93;;
51556;SDS011;38766;53.194;5.532;2023-03-21T07:32:45;21.17;;;10.63;;
51556;SDS011;38766;53.194;5.532;2023-03-21T07:35:12;21.70;;;11.02;;
51556;SDS011;38766;53.194;5.532;2023-03-21T07:37:40;20.58;;;11.38;;
51556;SDS011;38766;53.194;5.532;2023-03-21T07:40:06;21.63;;;10.43;;
51556;SDS011;38766;53.194;5.532;2023-03-21T07:42:37;24.25;;;11.05;;
51556;SDS011;38766;53.194;5.532;2023-03-21T07:45:06;21.08;;;12.15;;
51556;SDS011;38766;53.194;5.532;2023-03-21T07:47:33;21.13;;;11.38;;
51556;SDS011;38766;53.194;5.532;2023-03-21T07:50:00;21.38;;;10.93;;
51556;SDS011;38766;53.194;5.532;2023-03-21T07:52:25;20.35;;;10.88;;
51556;SDS011;38766;53.194;5.532;2023-03-21T07:54:51;22.13;;;11.52;;
51556;SDS011;38766;53.194;5.532;2023-03-21T07:57:17;22.15;;;11.07;;
51556;SDS011;38766;53.194;5.532;2023-03-21T07:59:42;20.05;;;10.73;;
51556;SDS011;38766;53.194;5.532;2023-03-21T08:02:12;21.30;;;11.25;;
51556;SDS011;38766;53.194;5.532;2023-03-21T08:04:40;24.08;;;12.25;;
51556;SDS011;38766;53.194;5.532;2023-03-21T08:07:06;18.95;;;11.25;;
51556;SDS011;38766;53.194;5.532;2023-03-21T08:09:31;20.88;;;11.82;;
51556;SDS011;38766;53.194;5.532;2023-03-21T08:11:57;16.35;;;10.20;;
51556;SDS011;38766;53.194;5.532;2023-03-21T08:14:22;20.08;;;10.60;;
51556;SDS011;38766;53.194;5.532;2023-03-21T08:16:48;15.93;;;10.02;;
51556;SDS011;38766;53.194;5.532;2023-03-21T08:19:14;20.95;;;10.02;;
51556;SDS011;38766;53.194;5.532;2023-03-21T08:21:40;17.20;;;10.05;;
51556;SDS011;38766;53.194;5.532;2023-03-21T08:24:05;19.33;;;10.38;;
51556;SDS011;38766;53.194;5.532;2023-03-21T08:26:32;19.30;;;11.50;;
51556;SDS011;38766;53.194;5.532;2023-03-21T08:28:58;21.40;;;12.70;;
51556;SDS011;38766;53.194;5.532;2023-03-21T08:31:24;28.92;;;14.50;;
51556;SDS011;38766;53.194;5.532;2023-03-21T08:33:50;29.23;;;16.15;;
51556;SDS011;38766;53.194;5.532;2023-03-21T08:36:18;28.45;;;16.77;;
51556;SDS011;38766;53.194;5.532;2023-03-21T08:38:45;26.02;;;16.77;;
51556;SDS011;38766;53.194;5.532;2023-03-21T08:41:12;33.65;;;22.00;;
51556;SDS011;38766;53.194;5.532;2023-03-21T08:43:39;36.60;;;22.23;;
51556;SDS011;38766;53.194;5.532;2023-03-21T08:46:05;38.58;;;22.65;;
51556;SDS011;38766;53.194;5.532;2023-03-21T08:48:31;43.45;;;23.33;;
51556;SDS011;38766;53.194;5.532;2023-03-21T08:50:58;38.47;;;22.88;;
51556;SDS011;38766;53.194;5.532;2023-03-21T08:53:24;42.97;;;22.83;;
51556;SDS011;38766;53.194;5.532;2023-03-21T08:55:50;38.65;;;24.70;;
51556;SDS011;38766;53.194;5.532;2023-03-21T08:58:16;49.08;;;25.55;;
51556;SDS011;38766;53.194;5.532;2023-03-21T09:00:41;53.88;;;28.30;;
51556;SDS011;38766;53.194;5.532;2023-03-21T09:03:07;43.10;;;25.90;;
51556;SDS011;38766;53.194;5.532;2023-03-21T09:05:33;50.03;;;26.80;;
51556;SDS011;38766;53.194;5.532;2023-03-21T09:08:00;47.20;;;27.90;;
51556;SDS011;38766;53.194;5.532;2023-03-21T09:10:27;48.40;;;25.80;;
51556;SDS011;38766;53.194;5.532;2023-03-21T09:12:54;47.08;;;27.40;;
51556;SDS011;38766;53.194;5.532;2023-03-21T09:15:21;50.10;;;25.23;;
51556;SDS011;38766;53.194;5.532;2023-03-21T09:17:48;45.10;;;25.65;;
51556;SDS011;38766;53.194;5.532;2023-03-21T09:20:17;52.53;;;24.63;;
51556;SDS011;38766;53.194;5.532;2023-03-21T09:22:47;44.17;;;24.95;;
51556;SDS011;38766;53.194;5.532;2023-03-21T09:25:15;53.92;;;25.30;;
51556;SDS011;38766;53.194;5.532;2023-03-21T09:27:41;48.15;;;24.63;;
51556;SDS011;38766;53.194;5.532;2023-03-21T09:30:10;49.45;;;24.08;;
51556;SDS011;38766;53.194;5.532;2023-03-21T09:32:44;48.22;;;25.20;;
51556;SDS011;38766;53.194;5.532;2023-03-21T09:35:12;44.40;;;24.77;;
51556;SDS011;38766;53.194;5.532;2023-03-21T09:37:40;53.30;;;26.05;;
51556;SDS011;38766;53.194;5.532;2023-03-21T09:46:01;50.95;;;25.45;;
51556;SDS011;38766;53.194;5.532;2023-03-21T09:51:14;52.30;;;24.55;;
51556;SDS011;38766;53.194;5.532;2023-03-21T09:53:43;39.25;;;21.77;;
51556;SDS011;38766;53.194;5.532;2023-03-21T09:56:12;36.92;;;20.08;;
51556;SDS011;38766;53.194;5.532;2023-03-21T09:58:43;43.45;;;20.90;;
51556;SDS011;38766;53.194;5.532;2023-03-21T10:01:20;41.33;;;20.80;;
51556;SDS011;38766;53.194;5.532;2023-03-21T10:03:54;35.25;;;17.90;;
51556;SDS011;38766;53.194;5.532;2023-03-21T10:06:21;31.42;;;18.00;;
51556;SDS011;38766;53.194;5.532;2023-03-21T10:08:56;34.80;;;17.58;;
51556;SDS011;38766;53.194;5.532;2023-03-21T10:11:55;33.38;;;15.95;;
51556;SDS011;38766;53.194;5.532;2023-03-21T10:14:33;29.63;;;15.07;;
51556;SDS011;38766;53.194;5.532;2023-03-21T10:19:55;25.23;;;14.47;;
51556;SDS011;38766;53.194;5.532;2023-03-21T10:22:35;23.58;;;13.55;;
51556;SDS011;38766;53.194;5.532;2023-03-21T10:25:01;24.95;;;12.57;;
51556;SDS011;38766;53.194;5.532;2023-03-21T10:27:27;23.52;;;11.63;;
51556;SDS011;38766;53.194;5.532;2023-03-21T10:29:53;23.45;;;12.68;;
51556;SDS011;38766;53.194;5.532;2023-03-21T10:32:22;19.95;;;11.07;;
51556;SDS011;38766;53.194;5.532;2023-03-21T10:34:55;17.98;;;11.07;;
51556;SDS011;38766;53.194;5.532;2023-03-21T10:37:22;22.40;;;10.57;;
51556;SDS011;38766;53.194;5.532;2023-03-21T10:39:50;19.10;;;10.15;;
51556;SDS011;38766;53.194;5.532;2023-03-21T10:42:18;18.17;;;9.98;;
51556;SDS011;38766;53.194;5.532;2023-03-21T10:44:54;16.00;;;9.98;;
51556;SDS011;38766;53.194;5.532;2023-03-21T10:47:25;17.63;;;10.40;;
51556;SDS011;38766;53.194;5.532;2023-03-21T10:49:52;15.40;;;9.35;;
51556;SDS011;38766;53.194;5.532;2023-03-21T10:52:20;19.80;;;10.35;;
51556;SDS011;38766;53.194;5.532;2023-03-21T10:54:47;17.15;;;9.73;;
51556;SDS011;38766;53.194;5.532;2023-03-21T10:57:18;16.48;;;9.18;;
51556;SDS011;38766;53.194;5.532;2023-03-21T10:59:53;17.95;;;8.73;;
51556;SDS011;38766;53.194;5.532;2023-03-21T11:02:27;18.05;;;9.70;;
51556;SDS011;38766;53.194;5.532;2023-03-21T11:07:28;20.77;;;10.82;;
51556;SDS011;38766;53.194;5.532;2023-03-21T11:09:59;18.95;;;11.48;;
51556;SDS011;38766;53.194;5.532;2023-03-21T11:12:32;18.25;;;10.40;;
51556;SDS011;38766;53.194;5.532;2023-03-21T11:17:54;15.32;;;9.93;;
51556;SDS011;38766;53.194;5.532;2023-03-21T11:20:20;21.63;;;10.75;;
51556;SDS011;38766;53.194;5.532;2023-03-21T11:22:46;16.85;;;10.82;;
51556;SDS011;38766;53.194;5.532;2023-03-21T11:25:47;23.40;;;12.65;;
51556;SDS011;38766;53.194;5.532;2023-03-21T11:28:07;22.25;;;11.35;;
51556;SDS011;38766;53.194;5.532;2023-03-21T11:30:37;20.25;;;11.77;;
51556;SDS011;38766;53.194;5.532;2023-03-21T11:33:18;21.70;;;11.82;;
51556;SDS011;38766;53.194;5.532;2023-03-21T11:35:56;17.33;;;10.43;;
51556;SDS011;38766;53.194;5.532;2023-03-21T11:38:31;20.85;;;11.82;;
51556;SDS011;38766;53.194;5.532;2023-03-21T11:41:03;20.83;;;10.75;;
51556;SDS011;38766;53.194;5.532;2023-03-21T11:43:30;16.48;;;10.32;;
51556;SDS011;38766;53.194;5.532;2023-03-21T11:48:28;16.75;;;9.70;;
51556;SDS011;38766;53.194;5.532;2023-03-21T11:51:00;23.10;;;11.63;;
51556;SDS011;38766;53.194;5.532;2023-03-21T11:53:39;18.15;;;10.40;;
51556;SDS011;38766;53.194;5.532;2023-03-21T11:56:23;19.73;;;11.15;;
51556;SDS011;38766;53.194;5.532;2023-03-21T11:58:56;17.88;;;9.75;;
51556;SDS011;38766;53.194;5.532;2023-03-21T12:04:28;16.38;;;10.18;;
51556;SDS011;38766;53.194;5.532;2023-03-21T12:07:04;20.00;;;10.95;;
51556;SDS011;38766;53.194;5.532;2023-03-21T12:12:51;20.48;;;10.52;;
51556;SDS011;38766;53.194;5.532;2023-03-21T12:15:21;16.50;;;10.70;;
51556;SDS011;38766;53.194;5.532;2023-03-21T12:17:58;23.00;;;11.98;;
51556;SDS011;38766;53.194;5.532;2023-03-21T12:20:36;18.05;;;11.13;;
51556;SDS011;38766;53.194;5.532;2023-03-21T12:25:55;17.63;;;11.15;;
51556;SDS011;38766;53.194;5.532;2023-03-21T12:28:46;20.10;;;11.20;;
51556;SDS011;38766;53.194;5.532;2023-03-21T12:39:38;20.02;;;12.75;;
51556;SDS011;38766;53.194;5.532;2023-03-21T12:45:15;26.67;;;12.65;;
51556;SDS011;38766;53.194;5.532;2023-03-21T12:47:49;31.13;;;13.40;;
51556;SDS011;38766;53.194;5.532;2023-03-21T12:50:19;20.63;;;13.48;;
51556;SDS011;38766;53.194;5.532;2023-03-21T12:52:48;21.55;;;13.70;;
51556;SDS011;38766;53.194;5.532;2023-03-21T12:55:28;18.10;;;12.77;;
51556;SDS011;38766;53.194;5.532;2023-03-21T12:58:10;22.60;;;12.20;;
51556;SDS011;38766;53.194;5.532;2023-03-21T13:00:44;20.50;;;13.60;;
51556;SDS011;38766;53.194;5.532;2023-03-21T13:05:55;22.65;;;14.70;;
51556;SDS011;38766;53.194;5.532;2023-03-21T13:11:06;22.02;;;13.55;;
51556;SDS011;38766;53.194;5.532;2023-03-21T13:19:07;20.77;;;12.70;;
51556;SDS011;38766;53.194;5.532;2023-03-21T13:21:51;19.98;;;11.77;;
51556;SDS011;38766;53.194;5.532;2023-03-21T13:24:38;20.40;;;10.25;;
51556;SDS011;38766;53.194;5.532;2023-03-21T13:29:53;19.67;;;9.70;;
51556;SDS011;38766;53.194;5.532;2023-03-21T13:32:34;20.88;;;8.93;;
51556;SDS011;38766;53.194;5.532;2023-03-21T13:37:34;15.75;;;9.35;;
51556;SDS011;38766;53.194;5.532;2023-03-21T13:40:06;16.15;;;9.50;;
51556;SDS011;38766;53.194;5.532;2023-03-21T13:42:47;18.67;;;8.32;;
51556;SDS011;38766;53.194;5.532;2023-03-21T13:48:32;20.23;;;8.90;;
51556;SDS011;38766;53.194;5.532;2023-03-21T13:54:01;14.10;;;7.10;;
51556;SDS011;38766;53.194;5.532;2023-03-21T13:56:28;11.02;;;5.85;;
51556;SDS011;38766;53.194;5.532;2023-03-21T13:58:57;16.15;;;7.15;;
51556;SDS011;38766;53.194;5.532;2023-03-21T14:01:26;15.20;;;6.43;;
51556;SDS011;38766;53.194;5.532;2023-03-21T14:03:57;12.55;;;5.47;;
51556;SDS011;38766;53.194;5.532;2023-03-21T14:09:28;12.98;;;5.45;;
51556;SDS011;38766;53.194;5.532;2023-03-21T14:12:06;11.07;;;4.97;;
51556;SDS011;38766;53.194;5.532;2023-03-21T14:14:44;11.98;;;5.25;;
51556;SDS011;38766;53.194;5.532;2023-03-21T14:17:14;12.18;;;5.53;;
51556;SDS011;38766;53.194;5.532;2023-03-21T14:19:51;9.43;;;4.88;;
51556;SDS011;38766;53.194;5.532;2023-03-21T14:22:18;10.55;;;4.78;;
51556;SDS011;38766;53.194;5.532;2023-03-21T14:24:48;9.35;;;5.40;;
51556;SDS011;38766;53.194;5.532;2023-03-21T14:30:09;14.57;;;6.95;;
51556;SDS011;38766;53.194;5.532;2023-03-21T14:32:43;14.10;;;7.15;;
51556;SDS011;38766;53.194;5.532;2023-03-21T14:35:11;13.98;;;6.57;;
51556;SDS011;38766;53.194;5.532;2023-03-21T14:37:39;15.10;;;6.97;;
51556;SDS011;38766;53.194;5.532;2023-03-21T14:40:15;17.23;;;6.53;;
51556;SDS011;38766;53.194;5.532;2023-03-21T14:42:45;17.08;;;7.80;;
51556;SDS011;38766;53.194;5.532;2023-03-21T14:47:53;12.27;;;6.57;;
51556;SDS011;38766;53.194;5.532;2023-03-21T14:50:27;14.18;;;7.50;;
51556;SDS011;38766;53.194;5.532;2023-03-21T14:52:58;15.50;;;6.95;;
51556;SDS011;38766;53.194;5.532;2023-03-21T14:55:26;15.63;;;7.78;;
51556;SDS011;38766;53.194;5.532;2023-03-21T14:57:52;15.38;;;7.82;;
51556;SDS011;38766;53.194;5.532;2023-03-21T15:00:22;13.90;;;7.90;;
51556;SDS011;38766;53.194;5.532;2023-03-21T15:02:56;13.07;;;7.88;;
51556;SDS011;38766;53.194;5.532;2023-03-21T15:05:24;16.33;;;9.10;;
51556;SDS011;38766;53.194;5.532;2023-03-21T15:08:01;14.68;;;8.50;;
51556;SDS011;38766;53.194;5.532;2023-03-21T15:10:31;13.95;;;9.00;;
51556;SDS011;38766;53.194;5.532;2023-03-21T15:12:58;19.10;;;10.20;;
51556;SDS011;38766;53.194;5.532;2023-03-21T15:15:27;14.60;;;10.13;;
51556;SDS011;38766;53.194;5.532;2023-03-21T15:17:55;15.25;;;9.20;;
51556;SDS011;38766;53.194;5.532;2023-03-21T15:20:25;14.45;;;8.90;;
51556;SDS011;38766;53.194;5.532;2023-03-21T15:22:54;15.95;;;9.90;;
51556;SDS011;38766;53.194;5.532;2023-03-21T15:25:27;15.77;;;10.80;;
51556;SDS011;38766;53.194;5.532;2023-03-21T15:27:56;16.65;;;10.52;;
51556;SDS011;38766;53.194;5.532;2023-03-21T15:30:26;16.85;;;10.57;;
51556;SDS011;38766;53.194;5.532;2023-03-21T15:32:54;18.42;;;10.48;;
51556;SDS011;38766;53.194;5.532;2023-03-21T15:35:26;15.30;;;10.60;;
51556;SDS011;38766;53.194;5.532;2023-03-21T15:38:06;17.30;;;11.77;;
51556;SDS011;38766;53.194;5.532;2023-03-21T15:40:45;21.00;;;11.70;;
51556;SDS011;38766;53.194;5.532;2023-03-21T15:43:17;22.33;;;11.93;;
51556;SDS011;38766;53.194;5.532;2023-03-21T15:45:47;19.08;;;11.13;;
51556;SDS011;38766;53.194;5.532;2023-03-21T15:48:15;22.52;;;9.65;;
51556;SDS011;38766;53.194;5.532;2023-03-21T15:50:54;16.80;;;9.13;;
51556;SDS011;38766;53.194;5.532;2023-03-21T15:53:26;18.27;;;9.82;;
51556;SDS011;38766;53.194;5.532;2023-03-21T15:55:59;15.02;;;9.23;;
51556;SDS011;38766;53.194;5.532;2023-03-21T15:58:39;13.50;;;7.97;;
51556;SDS011;38766;53.194;5.532;2023-03-21T16:01:15;15.55;;;8.80;;
51556;SDS011;38766;53.194;5.532;2023-03-21T16:09:02;12.55;;;7.45;;
51556;SDS011;38766;53.194;5.532;2023-03-21T16:11:36;10.73;;;7.07;;
51556;SDS011;38766;53.194;5.532;2023-03-21T16:14:03;11.05;;;7.25;;
51556;SDS011;38766;53.194;5.532;2023-03-21T16:16:29;12.48;;;7.32;;
51556;SDS011;38766;53.194;5.532;2023-03-21T16:18:56;9.10;;;7.20;;
51556;SDS011;38766;53.194;5.532;2023-03-21T16:21:23;11.65;;;7.97;;